sensor_id;sensor_type;location;lat;lon;timestamp;pressure;altitude;pressure_sealevel;temperature;humidity
63622;BME280;49770;47.544;19.074;2023-04-05T04:19:17;100612.78;;;-1.76;81.01
63622;BME280;49770;47.544;19.074;2023-04-05T04:22:22;100614.50;;;-1.82;81.13
63622;BME280;49770;47.544;19.074;2023-04-05T04:25:28;100617.09;;;-1.79;80.76
63622;BME280;49770;47.544;19.074;2023-04-05T04:28:34;100613.59;;;-1.84;81.54
63622;BME280;49770;47.544;19.074;2023-04-05T04:31:43;100619.66;;;-1.85;82.38
63622;BME280;49770;47.544;19.074;2023-04-05T04:34:51;100622.28;;;-1.82;82.60
63622;BME280;49770;47.544;19.074;2023-04-05T04:38:04;100613.59;;;-1.80;82.21
63622;BME280;49770;47.544;19.074;2023-04-05T04:41:09;100618.84;;;-1.75;82.67
63622;BME280;49770;47.544;19.074;2023-04-05T04:44:13;100611.94;;;-1.68;82.03
63622;BME280;49770;47.544;19.074;2023-04-05T04:47:17;100615.41;;;-1.68;81.73
63622;BME280;49770;47.544;19.074;2023-04-05T04:50:23;100618.88;;;-1.66;81.55
63622;BME280;49770;47.544;19.074;2023-04-05T04:53:28;100620.63;;;-1.63;81.44
63622;BME280;49770;47.544;19.074;2023-04-05T04:56:31;100628.44;;;-1.61;80.98
63622;BME280;49770;47.544;19.074;2023-04-05T04:59:34;100623.25;;;-1.58;81.29
63622;BME280;49770;47.544;19.074;2023-04-05T05:02:38;100626.72;;;-1.55;80.51
63622;BME280;49770;47.544;19.074;2023-04-05T05:05:43;100624.16;;;-1.47;80.30
63622;BME280;49770;47.544;19.074;2023-04-05T05:08:46;100628.50;;;-1.49;80.78
63622;BME280;49770;47.544;19.074;2023-04-05T05:11:49;100626.78;;;-1.44;79.97
63622;BME280;49770;47.544;19.074;2023-04-05T05:14:52;100623.31;;;-1.43;79.91
63622;BME280;49770;47.544;19.074;2023-04-05T05:17:55;100625.03;;;-1.43;79.31
63622;BME280;49770;47.544;19.074;2023-04-05T05:21:00;100635.50;;;-1.31;78.15
63622;BME280;49770;47.544;19.074;2023-04-05T05:24:03;100627.75;;;-1.20;77.79
63622;BME280;49770;47.544;19.074;2023-04-05T05:27:08;100629.50;;;-1.06;77.22
63622;BME280;49770;47.544;19.074;2023-04-05T05:30:12;100639.94;;;-0.99;77.03
63622;BME280;49770;47.544;19.074;2023-04-05T05:33:14;100640.81;;;-0.97;76.72
63622;BME280;49770;47.544;19.074;2023-04-05T05:36:17;100645.19;;;-0.66;75.19
63622;BME280;49770;47.544;19.074;2023-04-05T05:39:21;100642.62;;;-0.44;73.58
63622;BME280;49770;47.544;19.074;2023-04-05T05:42:25;100642.59;;;-0.07;71.43
63622;BME280;49770;47.544;19.074;2023-04-05T05:45:31;100633.00;;;0.12;69.05
63622;BME280;49770;47.544;19.074;2023-04-05T05:48:34;100639.81;;;0.49;67.07
63622;BME280;49770;47.544;19.074;2023-04-05T05:51:37;100639.75;;;0.65;65.11
63622;BME280;49770;47.544;19.074;2023-04-05T05:54:40;100639.38;;;1.32;63.49
63622;BME280;49770;47.544;19.074;2023-04-05T05:57:43;100632.69;;;2.01;60.63
63622;BME280;49770;47.544;19.074;2023-04-05T06:00:47;100630.94;;;2.79;56.21
63622;BME280;49770;47.544;19.074;2023-04-05T06:03:53;100634.69;;;3.77;54.24
63622;BME280;49770;47.544;19.074;2023-04-05T06:06:56;100630.75;;;5.65;47.39
63622;BME280;49770;47.544;19.074;2023-04-05T06:09:59;100631.19;;;6.81;45.34
63622;BME280;49770;47.544;19.074;2023-04-05T06:13:02;100631.78;;;7.74;42.03
63622;BME280;49770;47.544;19.074;2023-04-05T06:16:05;100634.63;;;7.12;41.08
63622;BME280;49770;47.544;19.074;2023-04-05T06:19:08;100629.47;;;8.41;39.05
63622;BME280;49770;47.544;19.074;2023-04-05T06:22:11;100638.53;;;9.05;37.42
63622;BME280;49770;47.544;19.074;2023-04-05T06:25:13;100633.75;;;9.80;37.32
63622;BME280;49770;47.544;19.074;2023-04-05T06:28:19;100633.09;;;9.75;36.40
63622;BME280;49770;47.544;19.074;2023-04-05T06:31:30;100633.94;;;10.78;32.42
63622;BME280;49770;47.544;19.074;2023-04-05T06:34:33;100632.50;;;10.10;33.60
63622;BME280;49770;47.544;19.074;2023-04-05T06:37:35;100632.84;;;10.02;31.93
63622;BME280;49770;47.544;19.074;2023-04-05T06:40:38;100639.41;;;9.93;31.56
63622;BME280;49770;47.544;19.074;2023-04-05T06:43:41;100631.09;;;10.01;31.38
63622;BME280;49770;47.544;19.074;2023-04-05T06:46:44;100643.41;;;8.94;33.07
63622;BME280;49770;47.544;19.074;2023-04-05T06:49:47;100640.31;;;9.28;32.11
63622;BME280;49770;47.544;19.074;2023-04-05T06:52:50;100649.06;;;10.95;30.42
63622;BME280;49770;47.544;19.074;2023-04-05T06:55:54;100643.69;;;11.53;30.10
63622;BME280;49770;47.544;19.074;2023-04-05T06:58:57;100639.22;;;10.59;30.09
63622;BME280;49770;47.544;19.074;2023-04-05T07:02:01;100631.97;;;8.44;32.88
63622;BME280;49770;47.544;19.074;2023-04-05T07:05:04;100631.34;;;9.09;32.74
63622;BME280;49770;47.544;19.074;2023-04-05T07:08:07;100630.94;;;9.20;32.82
63622;BME280;49770;47.544;19.074;2023-04-05T07:11:12;100628.78;;;9.73;31.30
63622;BME280;49770;47.544;19.074;2023-04-05T07:14:14;100630.31;;;9.99;31.03
63622;BME280;49770;47.544;19.074;2023-04-05T07:17:17;100640.47;;;11.09;29.66
63622;BME280;49770;47.544;19.074;2023-04-05T07:20:20;100642.16;;;12.19;28.72
63622;BME280;49770;47.544;19.074;2023-04-05T07:23:23;100642.84;;;12.40;28.53
63622;BME280;49770;47.544;19.074;2023-04-05T07:26:26;100637.94;;;14.66;25.54
63622;BME280;49770;47.544;19.074;2023-04-05T07:29:29;100643.63;;;12.59;26.95
63622;BME280;49770;47.544;19.074;2023-04-05T07:32:33;100642.44;;;14.66;24.72
63622;BME280;49770;47.544;19.074;2023-04-05T07:35:36;100642.44;;;16.81;24.27
63622;BME280;49770;47.544;19.074;2023-04-05T07:38:39;100639.63;;;17.94;21.29
63622;BME280;49770;47.544;19.074;2023-04-05T07:41:43;100630.53;;;16.22;22.29
63622;BME280;49770;47.544;19.074;2023-04-05T07:44:46;100633.47;;;17.69;21.60
63622;BME280;49770;47.544;19.074;2023-04-05T07:47:49;100633.84;;;14.46;22.94
63622;BME280;49770;47.544;19.074;2023-04-05T07:50:52;100640.00;;;15.87;23.08
63622;BME280;49770;47.544;19.074;2023-04-05T07:53:55;100635.28;;;17.19;22.43
63622;BME280;49770;47.544;19.074;2023-04-05T08:00:43;100631.88;;;16.54;22.23
63622;BME280;49770;47.544;19.074;2023-04-05T08:03:46;100632.50;;;17.21;20.91
63622;BME280;49770;47.544;19.074;2023-04-05T08:06:49;100632.78;;;17.29;21.29
63622;BME280;49770;47.544;19.074;2023-04-05T08:09:52;100627.97;;;17.70;21.49
63622;BME280;49770;47.544;19.074;2023-04-05T08:12:58;100622.06;;;17.05;21.79
63622;BME280;49770;47.544;19.074;2023-04-05T08:16:02;100632.53;;;16.32;22.34
63622;BME280;49770;47.544;19.074;2023-04-05T08:19:04;100623.25;;;14.74;23.95
63622;BME280;49770;47.544;19.074;2023-04-05T08:22:08;100611.94;;;13.34;25.35
63622;BME280;49770;47.544;19.074;2023-04-05T08:25:10;100618.25;;;12.85;25.56
63622;BME280;49770;47.544;19.074;2023-04-05T08:28:13;100613.94;;;12.50;27.46
63622;BME280;49770;47.544;19.074;2023-04-05T08:31:16;100614.00;;;11.97;27.70
63622;BME280;49770;47.544;19.074;2023-04-05T08:34:19;100619.63;;;11.56;27.23
63622;BME280;49770;47.544;19.074;2023-04-05T08:37:21;100609.03;;;12.43;27.11
63622;BME280;49770;47.544;19.074;2023-04-05T08:40:32;100621.97;;;11.80;27.64
63622;BME280;49770;47.544;19.074;2023-04-05T08:47:00;100609.81;;;12.61;26.51
63622;BME280;49770;47.544;19.074;2023-04-05T08:50:03;100617.81;;;11.56;27.82
63622;BME280;49770;47.544;19.074;2023-04-05T08:53:07;100605.59;;;10.78;29.19
63622;BME280;49770;47.544;19.074;2023-04-05T08:56:14;100602.81;;;10.62;28.98
63622;BME280;49770;47.544;19.074;2023-04-05T08:59:18;100605.16;;;11.44;28.90
63622;BME280;49770;47.544;19.074;2023-04-05T09:02:22;100596.63;;;11.19;29.11
63622;BME280;49770;47.544;19.074;2023-04-05T09:05:27;100604.88;;;11.13;30.01
63622;BME280;49770;47.544;19.074;2023-04-05T09:08:30;100593.59;;;11.63;29.45
63622;BME280;49770;47.544;19.074;2023-04-05T09:11:34;100599.06;;;11.42;32.06
63622;BME280;49770;47.544;19.074;2023-04-05T09:14:37;100585.19;;;12.73;29.31
63622;BME280;49770;47.544;19.074;2023-04-05T09:17:42;100592.44;;;12.37;28.28
63622;BME280;49770;47.544;19.074;2023-04-05T09:20:44;100588.28;;;11.98;30.97
63622;BME280;49770;47.544;19.074;2023-04-05T09:23:51;100586.34;;;12.35;30.86
63622;BME280;49770;47.544;19.074;2023-04-05T09:27:12;100593.34;;;12.70;29.32
63622;BME280;49770;47.544;19.074;2023-04-05T09:30:20;100585.25;;;12.06;31.28
63622;BME280;49770;47.544;19.074;2023-04-05T09:33:23;100590.78;;;12.85;32.60
63622;BME280;49770;47.544;19.074;2023-04-05T09:36:27;100585.94;;;12.43;31.50
63622;BME280;49770;47.544;19.074;2023-04-05T09:39:31;100588.97;;;12.19;29.28
63622;BME280;49770;47.544;19.074;2023-04-05T09:42:42;100587.81;;;12.07;27.94
63622;BME280;49770;47.544;19.074;2023-04-05T09:45:48;100578.41;;;12.18;31.08
63622;BME280;49770;47.544;19.074;2023-04-05T09:48:51;100575.56;;;13.19;28.59
63622;BME280;49770;47.544;19.074;2023-04-05T09:51:56;100569.69;;;13.28;27.06
63622;BME280;49770;47.544;19.074;2023-04-05T09:55:01;100567.66;;;13.01;26.87
63622;BME280;49770;47.544;19.074;2023-04-05T09:58:10;100572.97;;;10.76;28.57
63622;BME280;49770;47.544;19.074;2023-04-05T10:01:13;100560.78;;;10.72;29.39
63622;BME280;49770;47.544;19.074;2023-04-05T10:04:19;100562.41;;;11.31;28.54
63622;BME280;49770;47.544;19.074;2023-04-05T10:07:22;100565.03;;;12.02;27.77
63622;BME280;49770;47.544;19.074;2023-04-05T10:10:25;100561.16;;;11.73;28.72
63622;BME280;49770;47.544;19.074;2023-04-05T10:13:28;100558.72;;;12.22;28.68
63622;BME280;49770;47.544;19.074;2023-04-05T10:16:33;100564.31;;;12.49;27.29
63622;BME280;49770;47.544;19.074;2023-04-05T10:23:14;100563.22;;;14.37;26.06
63622;BME280;49770;47.544;19.074;2023-04-05T10:26:26;100569.03;;;15.28;24.25
63622;BME280;49770;47.544;19.074;2023-04-05T10:30:05;100562.91;;;15.67;23.18
63622;BME280;49770;47.544;19.074;2023-04-05T10:33:34;100553.03;;;14.44;23.52
63622;BME280;49770;47.544;19.074;2023-04-05T10:36:59;100551.59;;;14.38;24.96
63622;BME280;49770;47.544;19.074;2023-04-05T10:40:03;100541.38;;;13.11;25.97
63622;BME280;49770;47.544;19.074;2023-04-05T10:43:16;100543.09;;;12.32;26.53
63622;BME280;49770;47.544;19.074;2023-04-05T10:46:20;100538.13;;;13.37;25.82
63622;BME280;49770;47.544;19.074;2023-04-05T10:52:33;100549.09;;;10.76;29.44
63622;BME280;49770;47.544;19.074;2023-04-05T10:55:37;100547.66;;;15.28;29.43
63622;BME280;49770;47.544;19.074;2023-04-05T10:58:41;100537.66;;;17.10;22.36
63622;BME280;49770;47.544;19.074;2023-04-05T11:01:45;100538.28;;;18.43;20.46
63622;BME280;49770;47.544;19.074;2023-04-05T11:04:55;100534.12;;;18.04;23.17
63622;BME280;49770;47.544;19.074;2023-04-05T11:08:06;100529.34;;;15.88;22.00
63622;BME280;49770;47.544;19.074;2023-04-05T11:11:08;100523.41;;;13.45;23.77
63622;BME280;49770;47.544;19.074;2023-04-05T11:14:21;100523.53;;;12.49;25.27
63622;BME280;49770;47.544;19.074;2023-04-05T11:17:27;100526.53;;;11.04;27.02
63622;BME280;49770;47.544;19.074;2023-04-05T11:20:48;100524.66;;;11.77;26.52
63622;BME280;49770;47.544;19.074;2023-04-05T11:24:01;100522.25;;;11.37;27.39
63622;BME280;49770;47.544;19.074;2023-04-05T11:27:08;100528.84;;;13.89;24.97
63622;BME280;49770;47.544;19.074;2023-04-05T11:30:11;100526.44;;;13.70;24.13
63622;BME280;49770;47.544;19.074;2023-04-05T11:36:43;100522.53;;;10.00;27.72
63622;BME280;49770;47.544;19.074;2023-04-05T11:40:25;100522.97;;;10.49;27.17
63622;BME280;49770;47.544;19.074;2023-04-05T11:43:32;100518.00;;;9.62;26.49
63622;BME280;49770;47.544;19.074;2023-04-05T11:46:40;100511.53;;;10.28;27.15
63622;BME280;49770;47.544;19.074;2023-04-05T11:49:48;100513.22;;;9.49;27.76
63622;BME280;49770;47.544;19.074;2023-04-05T11:53:07;100506.66;;;10.57;27.43
63622;BME280;49770;47.544;19.074;2023-04-05T11:56:11;100497.44;;;11.21;26.10
63622;BME280;49770;47.544;19.074;2023-04-05T11:59:17;100504.13;;;11.10;25.74
63622;BME280;49770;47.544;19.074;2023-04-05T12:02:20;100498.59;;;9.40;27.11
63622;BME280;49770;47.544;19.074;2023-04-05T12:05:24;100491.53;;;9.41;28.19
63622;BME280;49770;47.544;19.074;2023-04-05T12:08:44;100489.72;;;9.00;28.54
63622;BME280;49770;47.544;19.074;2023-04-05T12:11:53;100489.91;;;8.73;28.69
63622;BME280;49770;47.544;19.074;2023-04-05T12:15:00;100486.16;;;9.22;28.27
63622;BME280;49770;47.544;19.074;2023-04-05T12:18:03;100487.06;;;9.83;28.36
63622;BME280;49770;47.544;19.074;2023-04-05T12:21:07;100487.00;;;10.04;27.73
63622;BME280;49770;47.544;19.074;2023-04-05T12:24:11;100480.38;;;8.91;28.99
63622;BME280;49770;47.544;19.074;2023-04-05T12:27:14;100475.72;;;9.79;28.55
63622;BME280;49770;47.544;19.074;2023-04-05T12:30:22;100463.72;;;9.10;27.90
63622;BME280;49770;47.544;19.074;2023-04-05T12:33:26;100475.03;;;9.34;27.78
63622;BME280;49770;47.544;19.074;2023-04-05T12:36:30;100471.47;;;9.35;26.12
63622;BME280;49770;47.544;19.074;2023-04-05T12:39:34;100472.84;;;8.80;27.42
63622;BME280;49770;47.544;19.074;2023-04-05T12:42:38;100470.28;;;8.79;27.32
63622;BME280;49770;47.544;19.074;2023-04-05T12:45:41;100463.09;;;9.03;26.06
63622;BME280;49770;47.544;19.074;2023-04-05T12:48:49;100462.88;;;8.87;28.24
63622;BME280;49770;47.544;19.074;2023-04-05T12:51:52;100458.59;;;8.62;28.50
63622;BME280;49770;47.544;19.074;2023-04-05T12:54:55;100458.16;;;8.27;28.98
63622;BME280;49770;47.544;19.074;2023-04-05T12:57:59;100462.38;;;8.32;28.30
63622;BME280;49770;47.544;19.074;2023-04-05T13:01:02;100461.19;;;8.17;29.20
63622;BME280;49770;47.544;19.074;2023-04-05T13:04:05;100448.19;;;8.80;28.97
63622;BME280;49770;47.544;19.074;2023-04-05T13:07:18;100439.22;;;9.05;28.14
63622;BME280;49770;47.544;19.074;2023-04-05T13:10:23;100452.19;;;8.68;28.67
63622;BME280;49770;47.544;19.074;2023-04-05T13:13:27;100443.59;;;9.06;28.80
63622;BME280;49770;47.544;19.074;2023-04-05T13:16:29;100442.34;;;9.14;28.63
63622;BME280;49770;47.544;19.074;2023-04-05T13:19:32;100439.56;;;8.97;28.99
63622;BME280;49770;47.544;19.074;2023-04-05T13:22:35;100440.56;;;9.36;28.74
63622;BME280;49770;47.544;19.074;2023-04-05T13:25:39;100441.25;;;8.98;29.06
63622;BME280;49770;47.544;19.074;2023-04-05T13:28:43;100439.63;;;8.73;29.53
63622;BME280;49770;47.544;19.074;2023-04-05T13:31:45;100435.12;;;8.97;28.83
63622;BME280;49770;47.544;19.074;2023-04-05T13:34:48;100431.97;;;8.67;30.08
63622;BME280;49770;47.544;19.074;2023-04-05T13:37:51;100431.75;;;8.94;29.85
63622;BME280;49770;47.544;19.074;2023-04-05T13:40:53;100435.50;;;9.09;29.73
63622;BME280;49770;47.544;19.074;2023-04-05T13:43:57;100420.44;;;8.45;29.87
63622;BME280;49770;47.544;19.074;2023-04-05T13:47:03;100415.63;;;8.33;30.53
63622;BME280;49770;47.544;19.074;2023-04-05T13:50:06;100418.75;;;8.20;30.30
63622;BME280;49770;47.544;19.074;2023-04-05T13:53:09;100416.06;;;8.22;30.37
63622;BME280;49770;47.544;19.074;2023-04-05T13:56:12;100421.66;;;8.36;31.55
63622;BME280;49770;47.544;19.074;2023-04-05T13:59:15;100422.47;;;8.39;30.29
63622;BME280;49770;47.544;19.074;2023-04-05T14:02:18;100414.69;;;8.58;30.23
63622;BME280;49770;47.544;19.074;2023-04-05T14:05:26;100413.25;;;8.71;30.29
63622;BME280;49770;47.544;19.074;2023-04-05T14:08:29;100411.16;;;9.00;30.48
63622;BME280;49770;47.544;19.074;2023-04-05T14:11:32;100405.28;;;9.14;29.84
63622;BME280;49770;47.544;19.074;2023-04-05T14:14:35;100416.19;;;9.07;29.17
63622;BME280;49770;47.544;19.074;2023-04-05T14:17:38;100415.00;;;8.72;29.62
63622;BME280;49770;47.544;19.074;2023-04-05T14:20:41;100412.66;;;8.65;29.77
63622;BME280;49770;47.544;19.074;2023-04-05T14:23:45;100408.84;;;8.72;29.65
63622;BME280;49770;47.544;19.074;2023-04-05T14:26:48;100404.00;;;9.02;29.98
63622;BME280;49770;47.544;19.074;2023-04-05T14:29:53;100399.41;;;9.28;29.43
63622;BME280;49770;47.544;19.074;2023-04-05T14:32:58;100403.81;;;9.28;29.02
63622;BME280;49770;47.544;19.074;2023-04-05T14:36:01;100406.91;;;8.75;30.42
63622;BME280;49770;47.544;19.074;2023-04-05T14:39:04;100404.47;;;8.71;29.70
63622;BME280;49770;47.544;19.074;2023-04-05T14:42:07;100400.63;;;8.78;30.19
63622;BME280;49770;47.544;19.074;2023-04-05T14:45:10;100406.13;;;8.51;29.90
63622;BME280;49770;47.544;19.074;2023-04-05T14:48:13;100403.00;;;8.41;30.51
63622;BME280;49770;47.544;19.074;2023-04-05T14:51:16;100406.66;;;8.82;29.78
63622;BME280;49770;47.544;19.074;2023-04-05T14:54:18;100402.75;;;8.47;30.19
63622;BME280;49770;47.544;19.074;2023-04-05T14:57:21;100399.97;;;8.28;30.09
63622;BME280;49770;47.544;19.074;2023-04-05T15:00:24;100403.19;;;8.59;30.09
63622;BME280;49770;47.544;19.074;2023-04-05T15:03:27;100404.16;;;8.99;30.58
63622;BME280;49770;47.544;19.074;2023-04-05T15:06:32;100405.25;;;8.28;30.45
63622;BME280;49770;47.544;19.074;2023-04-05T15:09:35;100412.25;;;8.29;30.98
63622;BME280;49770;47.544;19.074;2023-04-05T15:12:38;100405.00;;;8.34;30.91
63622;BME280;49770;47.544;19.074;2023-04-05T15:15:41;100404.75;;;8.18;31.59
